sensor_id;sensor_type;location;lat;lon;timestamp;P1;durP1;ratioP1;P2;durP2;ratioP2
55655;SDS011;41530;52.382;5.270;2023-02-19T00:01:13;19.05;;;2.78;;
55655;SDS011;41530;52.382;5.270;2023-02-19T00:03:42;10.43;;;2.58;;
55655;SDS011;41530;52.382;5.270;2023-02-19T00:06:12;16.95;;;2.70;;
55655;SDS011;41530;52.382;5.270;2023-02-19T00:08:39;13.60;;;3.08;;
55655;SDS011;41530;52.382;5.270;2023-02-19T00:11:07;12.05;;;2.65;;
55655;SDS011;41530;52.382;5.270;2023-02-19T00:13:37;16.65;;;2.85;;
55655;SDS011;41530;52.382;5.270;2023-02-19T00:16:09;13.05;;;3.05;;
55655;SDS011;41530;52.382;5.270;2023-02-19T00:19:07;14.38;;;3.17;;
55655;SDS011;41530;52.382;5.270;2023-02-19T00:21:37;14.52;;;2.42;;
55655;SDS011;41530;52.382;5.270;2023-02-19T00:24:04;8.90;;;2.70;;
55655;SDS011;41530;52.382;5.270;2023-02-19T00:26:32;12.27;;;2.75;;
55655;SDS011;41530;52.382;5.270;2023-02-19T00:29:00;10.93;;;2.33;;
55655;SDS011;41530;52.382;5.270;2023-02-19T00:31:28;10.80;;;2.50;;
55655;SDS011;41530;52.382;5.270;2023-02-19T00:33:59;11.88;;;2.75;;
55655;SDS011;41530;52.382;5.270;2023-02-19T00:36:31;11.80;;;3.08;;
55655;SDS011;41530;52.382;5.270;2023-02-19T00:39:01;7.57;;;2.28;;
55655;SDS011;41530;52.382;5.270;2023-02-19T00:41:28;9.45;;;2.55;;
55655;SDS011;41530;52.382;5.270;2023-02-19T00:44:02;10.98;;;2.60;;
55655;SDS011;41530;52.382;5.270;2023-02-19T00:46:32;8.85;;;2.72;;
55655;SDS011;41530;52.382;5.270;2023-02-19T00:49:03;10.32;;;2.40;;
55655;SDS011;41530;52.382;5.270;2023-02-19T00:51:32;8.85;;;1.90;;
55655;SDS011;41530;52.382;5.270;2023-02-19T00:54:00;12.63;;;2.70;;
55655;SDS011;41530;52.382;5.270;2023-02-19T00:56:28;9.95;;;2.20;;
55655;SDS011;41530;52.382;5.270;2023-02-19T00:58:54;8.55;;;2.72;;
55655;SDS011;41530;52.382;5.270;2023-02-19T01:01:21;8.50;;;2.65;;
55655;SDS011;41530;52.382;5.270;2023-02-19T01:03:48;5.90;;;2.25;;
55655;SDS011;41530;52.382;5.270;2023-02-19T01:06:16;9.02;;;2.72;;
55655;SDS011;41530;52.382;5.270;2023-02-19T01:08:44;9.85;;;2.80;;
55655;SDS011;41530;52.382;5.270;2023-02-19T01:11:11;11.98;;;3.63;;
55655;SDS011;41530;52.382;5.270;2023-02-19T01:13:39;11.20;;;3.40;;
55655;SDS011;41530;52.382;5.270;2023-02-19T01:16:07;8.57;;;2.97;;
55655;SDS011;41530;52.382;5.270;2023-02-19T01:18:37;7.60;;;2.90;;
55655;SDS011;41530;52.382;5.270;2023-02-19T01:21:05;6.55;;;2.83;;
55655;SDS011;41530;52.382;5.270;2023-02-19T01:23:34;11.73;;;3.58;;
55655;SDS011;41530;52.382;5.270;2023-02-19T01:26:08;8.77;;;3.05;;
55655;SDS011;41530;52.382;5.270;2023-02-19T01:28:37;8.82;;;2.88;;
55655;SDS011;41530;52.382;5.270;2023-02-19T01:31:05;8.45;;;2.55;;
55655;SDS011;41530;52.382;5.270;2023-02-19T01:33:33;8.82;;;3.00;;
55655;SDS011;41530;52.382;5.270;2023-02-19T01:36:03;8.52;;;3.13;;
55655;SDS011;41530;52.382;5.270;2023-02-19T01:38:31;9.13;;;2.80;;
55655;SDS011;41530;52.382;5.270;2023-02-19T01:40:59;8.88;;;2.70;;
55655;SDS011;41530;52.382;5.270;2023-02-19T01:43:28;7.18;;;2.42;;
55655;SDS011;41530;52.382;5.270;2023-02-19T01:45:57;8.63;;;2.80;;
55655;SDS011;41530;52.382;5.270;2023-02-19T01:48:24;6.60;;;2.35;;
55655;SDS011;41530;52.382;5.270;2023-02-19T01:51:02;6.25;;;2.40;;
55655;SDS011;41530;52.382;5.270;2023-02-19T01:53:36;9.70;;;3.10;;
55655;SDS011;41530;52.382;5.270;2023-02-19T01:56:06;5.03;;;2.40;;
55655;SDS011;41530;52.382;5.270;2023-02-19T01:58:34;4.05;;;1.98;;
55655;SDS011;41530;52.382;5.270;2023-02-19T02:01:03;8.75;;;2.53;;
55655;SDS011;41530;52.382;5.270;2023-02-19T02:03:32;4.82;;;2.10;;
55655;SDS011;41530;52.382;5.270;2023-02-19T02:06:08;6.20;;;1.95;;
55655;SDS011;41530;52.382;5.270;2023-02-19T02:08:41;7.10;;;2.40;;
55655;SDS011;41530;52.382;5.270;2023-02-19T02:11:26;6.25;;;2.13;;
55655;SDS011;41530;52.382;5.270;2023-02-19T02:13:53;6.15;;;1.90;;
55655;SDS011;41530;52.382;5.270;2023-02-19T02:19:00;5.07;;;2.15;;
55655;SDS011;41530;52.382;5.270;2023-02-19T02:21:52;3.97;;;1.95;;
55655;SDS011;41530;52.382;5.270;2023-02-19T02:32:34;8.52;;;2.30;;
55655;SDS011;41530;52.382;5.270;2023-02-19T02:35:09;6.38;;;2.20;;
55655;SDS011;41530;52.382;5.270;2023-02-19T02:37:39;7.57;;;2.40;;
55655;SDS011;41530;52.382;5.270;2023-02-19T02:40:08;6.53;;;2.00;;
55655;SDS011;41530;52.382;5.270;2023-02-19T02:42:37;8.82;;;2.42;;
55655;SDS011;41530;52.382;5.270;2023-02-19T02:45:19;7.68;;;2.17;;
55655;SDS011;41530;52.382;5.270;2023-02-19T02:56:59;4.15;;;1.90;;
55655;SDS011;41530;52.382;5.270;2023-02-19T02:59:28;4.15;;;1.85;;
55655;SDS011;41530;52.382;5.270;2023-02-19T03:02:02;10.63;;;2.70;;
55655;SDS011;41530;52.382;5.270;2023-02-19T03:13:20;6.82;;;2.70;;
55655;SDS011;41530;52.382;5.270;2023-02-19T03:16:19;7.07;;;2.58;;
55655;SDS011;41530;52.382;5.270;2023-02-19T03:19:10;6.28;;;2.35;;
55655;SDS011;41530;52.382;5.270;2023-02-19T03:24:29;8.50;;;1.95;;
55655;SDS011;41530;52.382;5.270;2023-02-19T03:27:19;5.40;;;2.10;;
55655;SDS011;41530;52.382;5.270;2023-02-19T03:29:47;7.35;;;2.33;;
55655;SDS011;41530;52.382;5.270;2023-02-19T03:32:18;8.77;;;2.22;;
55655;SDS011;41530;52.382;5.270;2023-02-19T03:35:05;8.00;;;1.95;;
55655;SDS011;41530;52.382;5.270;2023-02-19T03:37:44;7.43;;;2.10;;
55655;SDS011;41530;52.382;5.270;2023-02-19T03:40:29;6.70;;;2.08;;
55655;SDS011;41530;52.382;5.270;2023-02-19T03:46:16;8.35;;;1.80;;
55655;SDS011;41530;52.382;5.270;2023-02-19T03:49:00;9.40;;;2.20;;
55655;SDS011;41530;52.382;5.270;2023-02-19T03:51:37;7.15;;;2.45;;
55655;SDS011;41530;52.382;5.270;2023-02-19T03:59:37;8.93;;;2.53;;
55655;SDS011;41530;52.382;5.270;2023-02-19T04:02:18;6.03;;;1.83;;
55655;SDS011;41530;52.382;5.270;2023-02-19T04:04:49;9.85;;;2.40;;
55655;SDS011;41530;52.382;5.270;2023-02-19T04:07:24;5.30;;;1.83;;
55655;SDS011;41530;52.382;5.270;2023-02-19T04:09:53;5.57;;;1.95;;
55655;SDS011;41530;52.382;5.270;2023-02-19T04:12:19;6.18;;;1.92;;
55655;SDS011;41530;52.382;5.270;2023-02-19T04:14:57;6.72;;;2.00;;
55655;SDS011;41530;52.382;5.270;2023-02-19T04:17:41;9.77;;;1.98;;
55655;SDS011;41530;52.382;5.270;2023-02-19T04:20:12;5.25;;;1.55;;
55655;SDS011;41530;52.382;5.270;2023-02-19T04:22:39;5.13;;;1.60;;
55655;SDS011;41530;52.382;5.270;2023-02-19T04:25:07;9.35;;;1.95;;
55655;SDS011;41530;52.382;5.270;2023-02-19T04:27:35;9.45;;;1.92;;
55655;SDS011;41530;52.382;5.270;2023-02-19T04:30:07;8.27;;;2.28;;
55655;SDS011;41530;52.382;5.270;2023-02-19T04:32:36;7.80;;;1.88;;
55655;SDS011;41530;52.382;5.270;2023-02-19T04:35:03;4.88;;;1.70;;
55655;SDS011;41530;52.382;5.270;2023-02-19T04:37:30;6.75;;;1.90;;
55655;SDS011;41530;52.382;5.270;2023-02-19T04:39:56;5.57;;;1.55;;
55655;SDS011;41530;52.382;5.270;2023-02-19T04:42:23;7.43;;;1.70;;
55655;SDS011;41530;52.382;5.270;2023-02-19T04:44:49;9.23;;;1.85;;
55655;SDS011;41530;52.382;5.270;2023-02-19T04:47:16;8.18;;;1.70;;
55655;SDS011;41530;52.382;5.270;2023-02-19T04:49:43;7.00;;;1.75;;
55655;SDS011;41530;52.382;5.270;2023-02-19T04:52:10;9.40;;;1.60;;
55655;SDS011;41530;52.382;5.270;2023-02-19T04:54:37;9.18;;;1.70;;
55655;SDS011;41530;52.382;5.270;2023-02-19T04:57:04;6.78;;;1.77;;
55655;SDS011;41530;52.382;5.270;2023-02-19T04:59:31;7.82;;;1.73;;
55655;SDS011;41530;52.382;5.270;2023-02-19T05:01:57;6.60;;;1.83;;
55655;SDS011;41530;52.382;5.270;2023-02-19T05:04:24;5.88;;;1.65;;
55655;SDS011;41530;52.382;5.270;2023-02-19T05:06:51;6.18;;;1.58;;
55655;SDS011;41530;52.382;5.270;2023-02-19T05:09:17;5.28;;;1.45;;
55655;SDS011;41530;52.382;5.270;2023-02-19T05:11:44;5.93;;;1.58;;
55655;SDS011;41530;52.382;5.270;2023-02-19T05:14:11;7.82;;;1.67;;
55655;SDS011;41530;52.382;5.270;2023-02-19T05:16:37;6.47;;;1.50;;
55655;SDS011;41530;52.382;5.270;2023-02-19T05:19:04;9.32;;;2.00;;
55655;SDS011;41530;52.382;5.270;2023-02-19T05:21:30;5.32;;;1.40;;
55655;SDS011;41530;52.382;5.270;2023-02-19T05:23:57;8.20;;;1.70;;
55655;SDS011;41530;52.382;5.270;2023-02-19T05:26:23;7.63;;;1.58;;
55655;SDS011;41530;52.382;5.270;2023-02-19T05:28:51;5.40;;;1.45;;
55655;SDS011;41530;52.382;5.270;2023-02-19T05:31:18;5.13;;;1.60;;
55655;SDS011;41530;52.382;5.270;2023-02-19T05:33:46;5.88;;;1.60;;
55655;SDS011;41530;52.382;5.270;2023-02-19T05:36:17;6.55;;;1.50;;
55655;SDS011;41530;52.382;5.270;2023-02-19T05:38:45;8.20;;;1.70;;
55655;SDS011;41530;52.382;5.270;2023-02-19T05:41:13;6.20;;;1.48;;
55655;SDS011;41530;52.382;5.270;2023-02-19T05:43:45;7.57;;;1.60;;
55655;SDS011;41530;52.382;5.270;2023-02-19T05:46:13;4.50;;;1.52;;
55655;SDS011;41530;52.382;5.270;2023-02-19T05:48:42;10.00;;;2.17;;
55655;SDS011;41530;52.382;5.270;2023-02-19T05:51:09;9.48;;;1.70;;
55655;SDS011;41530;52.382;5.270;2023-02-19T05:53:39;4.70;;;1.60;;
55655;SDS011;41530;52.382;5.270;2023-02-19T05:58:51;4.03;;;1.33;;
55655;SDS011;41530;52.382;5.270;2023-02-19T06:01:19;5.20;;;1.55;;
55655;SDS011;41530;52.382;5.270;2023-02-19T06:03:47;7.43;;;1.50;;
55655;SDS011;41530;52.382;5.270;2023-02-19T06:06:14;6.85;;;1.35;;
55655;SDS011;41530;52.382;5.270;2023-02-19T06:08:42;6.50;;;1.60;;
55655;SDS011;41530;52.382;5.270;2023-02-19T06:11:09;6.20;;;1.33;;
55655;SDS011;41530;52.382;5.270;2023-02-19T06:13:36;7.55;;;1.70;;
55655;SDS011;41530;52.382;5.270;2023-02-19T06:16:03;7.97;;;1.50;;
55655;SDS011;41530;52.382;5.270;2023-02-19T06:18:30;9.27;;;1.63;;
55655;SDS011;41530;52.382;5.270;2023-02-19T06:21:00;7.30;;;1.65;;
55655;SDS011;41530;52.382;5.270;2023-02-19T06:23:28;10.70;;;1.85;;
55655;SDS011;41530;52.382;5.270;2023-02-19T06:26:08;5.63;;;1.60;;
55655;SDS011;41530;52.382;5.270;2023-02-19T06:28:45;6.53;;;2.13;;
55655;SDS011;41530;52.382;5.270;2023-02-19T06:31:13;11.25;;;1.70;;
55655;SDS011;41530;52.382;5.270;2023-02-19T06:33:41;7.82;;;1.75;;
55655;SDS011;41530;52.382;5.270;2023-02-19T06:36:12;5.50;;;1.45;;
55655;SDS011;41530;52.382;5.270;2023-02-19T06:38:41;6.25;;;1.60;;
55655;SDS011;41530;52.382;5.270;2023-02-19T06:41:08;7.00;;;1.70;;
55655;SDS011;41530;52.382;5.270;2023-02-19T06:43:38;10.73;;;2.08;;
55655;SDS011;41530;52.382;5.270;2023-02-19T06:46:05;10.48;;;2.00;;
55655;SDS011;41530;52.382;5.270;2023-02-19T06:48:33;7.13;;;1.55;;
55655;SDS011;41530;52.382;5.270;2023-02-19T06:51:00;8.90;;;1.50;;
55655;SDS011;41530;52.382;5.270;2023-02-19T06:53:27;7.85;;;1.63;;
55655;SDS011;41530;52.382;5.270;2023-02-19T06:55:54;9.23;;;1.92;;
55655;SDS011;41530;52.382;5.270;2023-02-19T06:58:25;10.07;;;2.08;;
55655;SDS011;41530;52.382;5.270;2023-02-19T07:00:52;8.43;;;1.58;;
55655;SDS011;41530;52.382;5.270;2023-02-19T07:03:19;8.32;;;2.00;;
55655;SDS011;41530;52.382;5.270;2023-02-19T07:05:46;6.45;;;1.77;;
55655;SDS011;41530;52.382;5.270;2023-02-19T07:08:13;12.52;;;1.95;;
55655;SDS011;41530;52.382;5.270;2023-02-19T07:10:43;6.57;;;1.98;;
55655;SDS011;41530;52.382;5.270;2023-02-19T07:13:10;9.95;;;1.83;;
55655;SDS011;41530;52.382;5.270;2023-02-19T07:15:37;9.77;;;2.00;;
55655;SDS011;41530;52.382;5.270;2023-02-19T07:18:04;9.43;;;1.67;;
55655;SDS011;41530;52.382;5.270;2023-02-19T07:20:32;9.38;;;1.85;;
55655;SDS011;41530;52.382;5.270;2023-02-19T07:22:59;6.15;;;1.70;;
55655;SDS011;41530;52.382;5.270;2023-02-19T07:25:25;6.20;;;1.60;;
55655;SDS011;41530;52.382;5.270;2023-02-19T07:27:52;9.88;;;1.90;;
55655;SDS011;41530;52.382;5.270;2023-02-19T07:30:18;6.55;;;1.65;;
55655;SDS011;41530;52.382;5.270;2023-02-19T07:32:45;6.68;;;1.60;;
55655;SDS011;41530;52.382;5.270;2023-02-19T07:35:12;13.65;;;1.88;;
55655;SDS011;41530;52.382;5.270;2023-02-19T07:37:39;9.13;;;1.73;;
55655;SDS011;41530;52.382;5.270;2023-02-19T07:40:06;8.10;;;1.63;;
55655;SDS011;41530;52.382;5.270;2023-02-19T07:42:33;8.60;;;1.80;;
55655;SDS011;41530;52.382;5.270;2023-02-19T07:44:59;9.55;;;1.73;;
55655;SDS011;41530;52.382;5.270;2023-02-19T07:47:27;7.00;;;1.48;;
55655;SDS011;41530;52.382;5.270;2023-02-19T07:49:54;9.57;;;1.90;;
55655;SDS011;41530;52.382;5.270;2023-02-19T07:52:21;11.20;;;1.85;;
55655;SDS011;41530;52.382;5.270;2023-02-19T07:54:47;10.75;;;1.77;;
55655;SDS011;41530;52.382;5.270;2023-02-19T07:57:14;4.85;;;1.27;;
55655;SDS011;41530;52.382;5.270;2023-02-19T07:59:41;9.45;;;1.65;;
55655;SDS011;41530;52.382;5.270;2023-02-19T08:02:14;9.63;;;1.60;;
55655;SDS011;41530;52.382;5.270;2023-02-19T08:05:01;6.18;;;1.30;;
55655;SDS011;41530;52.382;5.270;2023-02-19T08:07:32;7.10;;;1.40;;
55655;SDS011;41530;52.382;5.270;2023-02-19T08:09:59;22.10;;;1.60;;
55655;SDS011;41530;52.382;5.270;2023-02-19T08:15:38;5.65;;;1.42;;
55655;SDS011;41530;52.382;5.270;2023-02-19T08:18:05;7.05;;;1.50;;
55655;SDS011;41530;52.382;5.270;2023-02-19T08:20:33;6.40;;;1.27;;
55655;SDS011;41530;52.382;5.270;2023-02-19T08:22:59;7.90;;;1.50;;
55655;SDS011;41530;52.382;5.270;2023-02-19T08:25:26;8.57;;;1.75;;
55655;SDS011;41530;52.382;5.270;2023-02-19T08:27:53;6.75;;;1.15;;
55655;SDS011;41530;52.382;5.270;2023-02-19T08:30:19;5.18;;;1.30;;
55655;SDS011;41530;52.382;5.270;2023-02-19T08:32:46;4.72;;;1.52;;
55655;SDS011;41530;52.382;5.270;2023-02-19T08:35:13;5.80;;;1.38;;
55655;SDS011;41530;52.382;5.270;2023-02-19T08:37:40;4.20;;;1.30;;
55655;SDS011;41530;52.382;5.270;2023-02-19T08:40:06;6.25;;;1.27;;
55655;SDS011;41530;52.382;5.270;2023-02-19T08:42:33;5.47;;;0.95;;
55655;SDS011;41530;52.382;5.270;2023-02-19T08:45:00;4.07;;;1.40;;
55655;SDS011;41530;52.382;5.270;2023-02-19T08:47:26;6.40;;;1.27;;
55655;SDS011;41530;52.382;5.270;2023-02-19T08:49:53;2.75;;;1.08;;
55655;SDS011;41530;52.382;5.270;2023-02-19T08:52:19;7.82;;;1.38;;
55655;SDS011;41530;52.382;5.270;2023-02-19T08:54:46;2.85;;;1.10;;
55655;SDS011;41530;52.382;5.270;2023-02-19T08:57:13;2.28;;;0.93;;
55655;SDS011;41530;52.382;5.270;2023-02-19T08:59:39;3.55;;;1.35;;
55655;SDS011;41530;52.382;5.270;2023-02-19T09:02:07;3.55;;;1.08;;
55655;SDS011;41530;52.382;5.270;2023-02-19T09:04:34;3.55;;;0.90;;
55655;SDS011;41530;52.382;5.270;2023-02-19T09:07:03;3.63;;;0.98;;
55655;SDS011;41530;52.382;5.270;2023-02-19T09:09:33;4.43;;;1.00;;
55655;SDS011;41530;52.382;5.270;2023-02-19T09:12:03;2.92;;;1.13;;
55655;SDS011;41530;52.382;5.270;2023-02-19T09:14:31;2.58;;;1.00;;
55655;SDS011;41530;52.382;5.270;2023-02-19T09:16:59;4.13;;;1.23;;
55655;SDS011;41530;52.382;5.270;2023-02-19T09:19:27;3.00;;;1.20;;
55655;SDS011;41530;52.382;5.270;2023-02-19T09:21:54;1.25;;;1.02;;
55655;SDS011;41530;52.382;5.270;2023-02-19T09:24:21;2.65;;;1.35;;
55655;SDS011;41530;52.382;5.270;2023-02-19T09:26:48;3.30;;;1.40;;
55655;SDS011;41530;52.382;5.270;2023-02-19T09:29:15;3.53;;;1.40;;
55655;SDS011;41530;52.382;5.270;2023-02-19T09:31:43;3.60;;;1.30;;
55655;SDS011;41530;52.382;5.270;2023-02-19T09:34:10;3.83;;;1.50;;
55655;SDS011;41530;52.382;5.270;2023-02-19T09:36:39;2.05;;;1.33;;
55655;SDS011;41530;52.382;5.270;2023-02-19T09:39:06;2.08;;;1.38;;
55655;SDS011;41530;52.382;5.270;2023-02-19T09:41:41;2.28;;;1.10;;
55655;SDS011;41530;52.382;5.270;2023-02-19T09:44:12;3.67;;;1.60;;
55655;SDS011;41530;52.382;5.270;2023-02-19T09:46:46;2.22;;;1.10;;
55655;SDS011;41530;52.382;5.270;2023-02-19T09:49:17;1.73;;;0.80;;
55655;SDS011;41530;52.382;5.270;2023-02-19T09:51:55;1.60;;;0.90;;
55655;SDS011;41530;52.382;5.270;2023-02-19T09:54:26;2.37;;;1.23;;
55655;SDS011;41530;52.382;5.270;2023-02-19T09:56:55;1.73;;;0.98;;
55655;SDS011;41530;52.382;5.270;2023-02-19T09:59:26;4.28;;;1.00;;
55655;SDS011;41530;52.382;5.270;2023-02-19T10:02:01;1.50;;;0.73;;
55655;SDS011;41530;52.382;5.270;2023-02-19T10:04:30;2.42;;;0.65;;
55655;SDS011;41530;52.382;5.270;2023-02-19T10:06:57;2.72;;;1.05;;
55655;SDS011;41530;52.382;5.270;2023-02-19T10:09:28;0.93;;;0.70;;
55655;SDS011;41530;52.382;5.270;2023-02-19T10:11:56;1.35;;;0.70;;
55655;SDS011;41530;52.382;5.270;2023-02-19T10:14:35;1.00;;;0.68;;
55655;SDS011;41530;52.382;5.270;2023-02-19T10:17:14;0.90;;;0.75;;
55655;SDS011;41530;52.382;5.270;2023-02-19T10:19:54;1.20;;;0.85;;
55655;SDS011;41530;52.382;5.270;2023-02-19T10:22:23;1.70;;;0.80;;
55655;SDS011;41530;52.382;5.270;2023-02-19T10:24:53;1.15;;;0.63;;
55655;SDS011;41530;52.382;5.270;2023-02-19T10:27:21;1.10;;;0.68;;
55655;SDS011;41530;52.382;5.270;2023-02-19T10:29:51;1.15;;;0.65;;
55655;SDS011;41530;52.382;5.270;2023-02-19T10:32:18;1.73;;;0.68;;
55655;SDS011;41530;52.382;5.270;2023-02-19T10:35:09;0.77;;;0.45;;
55655;SDS011;41530;52.382;5.270;2023-02-19T10:37:42;0.90;;;0.43;;
55655;SDS011;41530;52.382;5.270;2023-02-19T10:40:29;1.77;;;0.50;;
55655;SDS011;41530;52.382;5.270;2023-02-19T10:42:56;0.68;;;0.40;;
55655;SDS011;41530;52.382;5.270;2023-02-19T10:45:30;2.47;;;0.43;;
55655;SDS011;41530;52.382;5.270;2023-02-19T10:48:00;1.60;;;0.47;;
55655;SDS011;41530;52.382;5.270;2023-02-19T10:50:32;10.32;;;0.90;;
55655;SDS011;41530;52.382;5.270;2023-02-19T10:53:04;5.55;;;0.65;;
55655;SDS011;41530;52.382;5.270;2023-02-19T10:55:32;2.75;;;0.60;;
55655;SDS011;41530;52.382;5.270;2023-02-19T10:58:22;3.58;;;0.55;;
55655;SDS011;41530;52.382;5.270;2023-02-19T11:01:09;1.35;;;0.40;;
55655;SDS011;41530;52.382;5.270;2023-02-19T11:03:47;1.40;;;0.50;;
55655;SDS011;41530;52.382;5.270;2023-02-19T11:06:17;1.83;;;0.50;;
55655;SDS011;41530;52.382;5.270;2023-02-19T11:11:21;4.75;;;0.47;;
55655;SDS011;41530;52.382;5.270;2023-02-19T11:14:12;4.20;;;0.40;;
55655;SDS011;41530;52.382;5.270;2023-02-19T11:19:22;1.55;;;0.40;;
55655;SDS011;41530;52.382;5.270;2023-02-19T11:22:01;3.33;;;0.50;;
55655;SDS011;41530;52.382;5.270;2023-02-19T11:24:46;0.85;;;0.30;;
55655;SDS011;41530;52.382;5.270;2023-02-19T11:27:19;1.60;;;0.43;;
55655;SDS011;41530;52.382;5.270;2023-02-19T11:29:48;3.40;;;0.50;;
55655;SDS011;41530;52.382;5.270;2023-02-19T11:32:16;3.10;;;0.50;;
55655;SDS011;41530;52.382;5.270;2023-02-19T11:34:50;0.65;;;0.32;;
55655;SDS011;41530;52.382;5.270;2023-02-19T11:37:18;0.88;;;0.30;;
55655;SDS011;41530;52.382;5.270;2023-02-19T11:39:47;1.60;;;0.40;;
55655;SDS011;41530;52.382;5.270;2023-02-19T11:42:37;1.38;;;0.40;;
55655;SDS011;41530;52.382;5.270;2023-02-19T11:45:23;0.35;;;0.20;;
55655;SDS011;41530;52.382;5.270;2023-02-19T11:56:33;0.52;;;0.30;;
55655;SDS011;41530;52.382;5.270;2023-02-19T11:59:03;0.75;;;0.60;;
55655;SDS011;41530;52.382;5.270;2023-02-19T12:10:18;0.20;;;0.20;;
55655;SDS011;41530;52.382;5.270;2023-02-19T12:13:01;0.75;;;0.20;;
55655;SDS011;41530;52.382;5.270;2023-02-19T12:18:46;1.70;;;0.20;;
55655;SDS011;41530;52.382;5.270;2023-02-19T12:21:23;0.55;;;0.30;;
55655;SDS011;41530;52.382;5.270;2023-02-19T12:27:00;0.40;;;0.20;;
55655;SDS011;41530;52.382;5.270;2023-02-19T12:32:20;0.30;;;0.20;;
55655;SDS011;41530;52.382;5.270;2023-02-19T12:37:59;0.10;;;0.10;;
55655;SDS011;41530;52.382;5.270;2023-02-19T12:43:18;0.88;;;0.30;;
55655;SDS011;41530;52.382;5.270;2023-02-19T12:51:05;0.28;;;0.20;;
55655;SDS011;41530;52.382;5.270;2023-02-19T12:56:24;0.70;;;0.30;;
55655;SDS011;41530;52.382;5.270;2023-02-19T12:58:59;2.83;;;0.40;;
55655;SDS011;41530;52.382;5.270;2023-02-19T13:01:34;0.60;;;0.30;;
55655;SDS011;41530;52.382;5.270;2023-02-19T13:06:58;1.98;;;0.52;;
55655;SDS011;41530;52.382;5.270;2023-02-19T13:09:32;0.50;;;0.20;;
55655;SDS011;41530;52.382;5.270;2023-02-19T13:12:04;0.10;;;0.10;;
55655;SDS011;41530;52.382;5.270;2023-02-19T13:14:47;0.85;;;0.20;;
55655;SDS011;41530;52.382;5.270;2023-02-19T13:17:26;0.82;;;0.20;;
55655;SDS011;41530;52.382;5.270;2023-02-19T13:20:03;0.40;;;0.22;;
55655;SDS011;41530;52.382;5.270;2023-02-19T13:22:53;0.20;;;0.20;;
55655;SDS011;41530;52.382;5.270;2023-02-19T13:36:39;0.17;;;0.10;;
55655;SDS011;41530;52.382;5.270;2023-02-19T13:39:07;0.20;;;0.20;;
55655;SDS011;41530;52.382;5.270;2023-02-19T13:41:51;0.52;;;0.30;;
55655;SDS011;41530;52.382;5.270;2023-02-19T13:44:23;0.45;;;0.25;;
55655;SDS011;41530;52.382;5.270;2023-02-19T13:46:52;2.75;;;0.20;;
55655;SDS011;41530;52.382;5.270;2023-02-19T13:54:44;0.50;;;0.20;;
55655;SDS011;41530;52.382;5.270;2023-02-19T13:59:50;0.30;;;0.20;;
55655;SDS011;41530;52.382;5.270;2023-02-19T14:04:48;0.13;;;0.13;;
55655;SDS011;41530;52.382;5.270;2023-02-19T14:09:45;0.25;;;0.10;;
55655;SDS011;41530;52.382;5.270;2023-02-19T14:14:47;1.58;;;0.30;;
55655;SDS011;41530;52.382;5.270;2023-02-19T14:17:29;0.20;;;0.20;;
55655;SDS011;41530;52.382;5.270;2023-02-19T14:30:50;0.10;;;0.10;;
55655;SDS011;41530;52.382;5.270;2023-02-19T14:33:21;0.20;;;0.20;;
55655;SDS011;41530;52.382;5.270;2023-02-19T14:35:51;0.10;;;0.10;;
55655;SDS011;41530;52.382;5.270;2023-02-19T14:40:53;0.85;;;0.20;;
55655;SDS011;41530;52.382;5.270;2023-02-19T14:43:22;0.20;;;0.20;;
55655;SDS011;41530;52.382;5.270;2023-02-19T14:48:27;0.32;;;0.10;;
55655;SDS011;41530;52.382;5.270;2023-02-19T14:51:02;0.30;;;0.20;;
55655;SDS011;41530;52.382;5.270;2023-02-19T14:53:34;0.32;;;0.10;;
55655;SDS011;41530;52.382;5.270;2023-02-19T14:56:04;1.30;;;0.22;;
55655;SDS011;41530;52.382;5.270;2023-02-19T14:58:41;0.10;;;0.10;;
55655;SDS011;41530;52.382;5.270;2023-02-19T15:01:24;0.32;;;0.17;;
55655;SDS011;41530;52.382;5.270;2023-02-19T15:03:53;0.20;;;0.20;;
55655;SDS011;41530;52.382;5.270;2023-02-19T15:06:21;0.10;;;0.10;;
55655;SDS011;41530;52.382;5.270;2023-02-19T15:08:54;1.08;;;0.10;;
55655;SDS011;41530;52.382;5.270;2023-02-19T15:11:25;0.10;;;0.10;;
55655;SDS011;41530;52.382;5.270;2023-02-19T15:13:57;0.65;;;0.38;;
55655;SDS011;41530;52.382;5.270;2023-02-19T15:16:27;0.73;;;0.73;;
55655;SDS011;41530;52.382;5.270;2023-02-19T15:18:56;0.20;;;0.20;;
55655;SDS011;41530;52.382;5.270;2023-02-19T15:21:26;0.60;;;0.15;;
55655;SDS011;41530;52.382;5.270;2023-02-19T15:23:55;0.40;;;0.15;;
55655;SDS011;41530;52.382;5.270;2023-02-19T15:26:39;0.30;;;0.20;;
55655;SDS011;41530;52.382;5.270;2023-02-19T15:29:12;0.47;;;0.10;;
55655;SDS011;41530;52.382;5.270;2023-02-19T15:31:46;0.10;;;0.10;;
55655;SDS011;41530;52.382;5.270;2023-02-19T15:34:27;1.15;;;0.10;;
55655;SDS011;41530;52.382;5.270;2023-02-19T15:37:05;0.13;;;0.10;;
55655;SDS011;41530;52.382;5.270;2023-02-19T15:39:35;0.20;;;0.10;;
55655;SDS011;41530;52.382;5.270;2023-02-19T15:42:05;0.93;;;0.10;;
55655;SDS011;41530;52.382;5.270;2023-02-19T15:44:38;0.40;;;0.20;;
55655;SDS011;41530;52.382;5.270;2023-02-19T15:47:17;0.32;;;0.10;;
55655;SDS011;41530;52.382;5.270;2023-02-19T15:49:56;0.25;;;0.17;;
55655;SDS011;41530;52.382;5.270;2023-02-19T15:52:32;0.10;;;0.10;;
55655;SDS011;41530;52.382;5.270;2023-02-19T15:57:49;0.77;;;0.20;;
55655;SDS011;41530;52.382;5.270;2023-02-19T16:00:45;0.17;;;0.13;;
55655;SDS011;41530;52.382;5.270;2023-02-19T16:03:19;0.40;;;0.10;;
55655;SDS011;41530;52.382;5.270;2023-02-19T16:06:09;0.10;;;0.10;;
55655;SDS011;41530;52.382;5.270;2023-02-19T16:08:37;0.20;;;0.13;;
55655;SDS011;41530;52.382;5.270;2023-02-19T16:11:51;1.45;;;0.20;;
55655;SDS011;41530;52.382;5.270;2023-02-19T16:16:42;0.20;;;0.20;;
55655;SDS011;41530;52.382;5.270;2023-02-19T16:19:11;0.10;;;0.10;;
55655;SDS011;41530;52.382;5.270;2023-02-19T16:21:41;1.35;;;0.20;;
55655;SDS011;41530;52.382;5.270;2023-02-19T16:26:42;2.13;;;0.20;;
55655;SDS011;41530;52.382;5.270;2023-02-19T16:29:19;1.85;;;0.20;;
55655;SDS011;41530;52.382;5.270;2023-02-19T16:31:49;0.57;;;0.15;;
55655;SDS011;41530;52.382;5.270;2023-02-19T16:42:35;0.75;;;0.20;;
55655;SDS011;41530;52.382;5.270;2023-02-19T16:45:21;0.10;;;0.10;;
55655;SDS011;41530;52.382;5.270;2023-02-19T16:47:51;0.20;;;0.20;;
55655;SDS011;41530;52.382;5.270;2023-02-19T16:50:22;0.40;;;0.20;;
55655;SDS011;41530;52.382;5.270;2023-02-19T16:52:54;1.85;;;0.17;;
55655;SDS011;41530;52.382;5.270;2023-02-19T16:55:26;0.30;;;0.22;;
55655;SDS011;41530;52.382;5.270;2023-02-19T16:57:54;0.77;;;0.20;;
55655;SDS011;41530;52.382;5.270;2023-02-19T17:00:22;1.15;;;0.10;;
55655;SDS011;41530;52.382;5.270;2023-02-19T17:02:51;0.10;;;0.10;;
55655;SDS011;41530;52.382;5.270;2023-02-19T17:05:21;0.30;;;0.22;;
55655;SDS011;41530;52.382;5.270;2023-02-19T17:07:48;0.43;;;0.20;;
55655;SDS011;41530;52.382;5.270;2023-02-19T17:10:18;0.93;;;0.25;;
55655;SDS011;41530;52.382;5.270;2023-02-19T17:12:50;0.22;;;0.22;;
55655;SDS011;41530;52.382;5.270;2023-02-19T17:15:18;0.80;;;0.20;;
55655;SDS011;41530;52.382;5.270;2023-02-19T17:17:44;1.95;;;0.30;;
55655;SDS011;41530;52.382;5.270;2023-02-19T17:22:41;1.08;;;0.20;;
55655;SDS011;41530;52.382;5.270;2023-02-19T17:25:07;0.47;;;0.20;;
55655;SDS011;41530;52.382;5.270;2023-02-19T17:27:34;0.25;;;0.20;;
55655;SDS011;41530;52.382;5.270;2023-02-19T17:30:01;0.30;;;0.10;;
55655;SDS011;41530;52.382;5.270;2023-02-19T17:32:28;0.73;;;0.20;;
55655;SDS011;41530;52.382;5.270;2023-02-19T17:34:54;0.40;;;0.30;;
55655;SDS011;41530;52.382;5.270;2023-02-19T17:37:21;0.30;;;0.20;;
55655;SDS011;41530;52.382;5.270;2023-02-19T17:39:47;0.20;;;0.20;;
55655;SDS011;41530;52.382;5.270;2023-02-19T17:42:14;0.80;;;0.30;;
55655;SDS011;41530;52.382;5.270;2023-02-19T17:44:41;0.43;;;0.20;;